Lake Charles, LA

5:43 AM CST on February 08, 2016 (GMT -0600)
Lake Charles Regional | | Change Station
CLOSE
Current Station
Airport
Location: Lake Charles Regional,
Elevation: 7 ft
Nearby Weather Stations
Active Advisory: Wind Advisory

Elev 7 ft 30.13 °N, 93.22 °W | Updated 50 minutes ago

Clear
Clear
48 °F
Feels Like 48 °F
N
7
Wind Variable Wind from NW

Today
High -- | Low -- °F
--% Chance of Precip.
Yesterday
High -- | Low -- °F
Precip. -- in
Pressure 30.18 in
Visibility 10.0 miles
Clouds Clear
Dew Point 40 °F
Humidity 74%
Rainfall 0.00 in
Snow Depth Not available.
6:58 AM 5:55 PM
Waning Crescent, 0% visible
METAR KLCH 081053Z AUTO 31006KT 10SM CLR 09/04 A3016 RMK AO2 SLP220 T00890044
Pressure 30.18 in
Visibility 10.0 miles
Clouds Clear
Dew Point 40 °F
Humidity 74%
Rainfall 0.00 in
Snow Depth Not available.
6:58 AM 5:55 PM
Waning Crescent, 0% visible
METAR KLCH 081053Z AUTO 31006KT 10SM CLR 09/04 A3016 RMK AO2 SLP220 T00890044

10-Day Weather Forecast

Almanac

Astronomy

Feb. 08, 2016 Rise Set
Actual Time
Civil Twilight
Nautical Twilight
Astronomical Twilight
Moon
Length of Visible Light
Length of Day
Tomorrow will be .
, % of the Moon is Illuminated

Today's Extremes

State Highs State Lows

Community

WunderPhotos

Upload Photos

1,891,420 photos uploaded!

WunderBlog® & News

Nearby

Air Quality

  Air Quality AQ Index Pollutant
Not available.

Snow Depth

Station Depth Elevation

Earthquake Activity

City Distance Mag. Time & Date
Minimum magnitude displayed is 2.5.

Coastal Water Temperatures

Place Temperature

Stations

Nearby Weather Stations

Station Location Temp. Windchill Dew Point Humidity Wind Precip. Elev Updated Type
                   

Watches & Warnings

Wind Advisory
Issued: 3:51 AM CST Feb. 8, 2016 – National Weather Service

... Wind Advisory in effect from 10 am this morning to 6 PM CST
this evening...

The National Weather Service in Lake Charles has issued a Wind
Advisory... which is in effect from 10 am this morning to 6 PM CST
this evening.

* Timing... late morning through sunset.

* Winds... sustained 20 to 25 mph... with gusts above 25 to 30
mph.

* Impacts... vehicles and high profile vehicles should use
caution as sudden gusts can cause loss of control. Loose lawn
furniture or trash cans may be blow around.

Precautionary/preparedness actions...

A Wind Advisory means that winds of 20 mph are expected. Winds
this strong can make driving difficult... especially for high
profile vehicles. Use extra caution.